sensor_id;sensor_type;location;lat;lon;timestamp;temperature;humidity
9057;DHT22;4563;54.756;9.400;2024-01-15T00:01:08;4.80;79.40
9057;DHT22;4563;54.756;9.400;2024-01-15T00:03:35;4.90;79.60
9057;DHT22;4563;54.756;9.400;2024-01-15T00:06:02;4.90;79.60
9057;DHT22;4563;54.756;9.400;2024-01-15T00:08:30;4.90;79.70
9057;DHT22;4563;54.756;9.400;2024-01-15T00:10:57;4.90;79.60
9057;DHT22;4563;54.756;9.400;2024-01-15T00:13:24;4.90;79.70
9057;DHT22;4563;54.756;9.400;2024-01-15T00:15:51;4.90;79.70
9057;DHT22;4563;54.756;9.400;2024-01-15T00:18:18;4.90;79.70
9057;DHT22;4563;54.756;9.400;2024-01-15T00:20:45;4.90;79.80
9057;DHT22;4563;54.756;9.400;2024-01-15T00:23:11;4.90;79.80
9057;DHT22;4563;54.756;9.400;2024-01-15T00:25:41;4.90;79.70
9057;DHT22;4563;54.756;9.400;2024-01-15T00:28:07;5.00;79.90
9057;DHT22;4563;54.756;9.400;2024-01-15T00:30:34;5.00;79.90
9057;DHT22;4563;54.756;9.400;2024-01-15T00:33:01;5.00;79.90
9057;DHT22;4563;54.756;9.400;2024-01-15T00:35:30;5.00;79.80
9057;DHT22;4563;54.756;9.400;2024-01-15T00:37:57;5.00;79.80
9057;DHT22;4563;54.756;9.400;2024-01-15T00:40:24;5.00;80.40
9057;DHT22;4563;54.756;9.400;2024-01-15T00:42:52;5.00;79.70
9057;DHT22;4563;54.756;9.400;2024-01-15T00:45:19;5.00;79.70
9057;DHT22;4563;54.756;9.400;2024-01-15T00:47:46;5.00;79.60
9057;DHT22;4563;54.756;9.400;2024-01-15T00:50:13;5.10;79.70
9057;DHT22;4563;54.756;9.400;2024-01-15T00:52:40;5.10;79.70
9057;DHT22;4563;54.756;9.400;2024-01-15T00:55:07;5.10;79.70
9057;DHT22;4563;54.756;9.400;2024-01-15T00:57:34;5.10;79.60
9057;DHT22;4563;54.756;9.400;2024-01-15T01:00:03;5.10;79.50
9057;DHT22;4563;54.756;9.400;2024-01-15T01:02:30;5.10;79.30
9057;DHT22;4563;54.756;9.400;2024-01-15T01:04:56;5.10;79.10
9057;DHT22;4563;54.756;9.400;2024-01-15T01:07:23;5.10;78.90
9057;DHT22;4563;54.756;9.400;2024-01-15T01:09:50;5.10;78.80
9057;DHT22;4563;54.756;9.400;2024-01-15T01:12:17;5.10;78.60
9057;DHT22;4563;54.756;9.400;2024-01-15T01:14:43;5.00;78.40
9057;DHT22;4563;54.756;9.400;2024-01-15T01:17:11;5.00;78.20
9057;DHT22;4563;54.756;9.400;2024-01-15T01:19:38;5.00;78.00
9057;DHT22;4563;54.756;9.400;2024-01-15T01:22:05;5.00;77.80
9057;DHT22;4563;54.756;9.400;2024-01-15T01:24:32;5.00;77.70
9057;DHT22;4563;54.756;9.400;2024-01-15T01:26:59;5.00;77.50
9057;DHT22;4563;54.756;9.400;2024-01-15T01:29:26;5.00;77.20
9057;DHT22;4563;54.756;9.400;2024-01-15T01:31:53;5.00;77.10
9057;DHT22;4563;54.756;9.400;2024-01-15T01:34:21;5.00;77.10
9057;DHT22;4563;54.756;9.400;2024-01-15T01:36:48;4.90;77.00
9057;DHT22;4563;54.756;9.400;2024-01-15T01:39:14;5.00;77.00
9057;DHT22;4563;54.756;9.400;2024-01-15T01:41:41;4.90;76.90
9057;DHT22;4563;54.756;9.400;2024-01-15T01:44:08;4.90;76.80
9057;DHT22;4563;54.756;9.400;2024-01-15T01:46:35;4.90;76.80
9057;DHT22;4563;54.756;9.400;2024-01-15T01:49:05;4.90;76.70
9057;DHT22;4563;54.756;9.400;2024-01-15T01:51:37;4.90;76.70
9057;DHT22;4563;54.756;9.400;2024-01-15T01:54:05;4.90;76.60
9057;DHT22;4563;54.756;9.400;2024-01-15T01:56:33;4.80;76.50
9057;DHT22;4563;54.756;9.400;2024-01-15T01:59:01;4.80;76.30
9057;DHT22;4563;54.756;9.400;2024-01-15T02:01:28;4.80;77.10
9057;DHT22;4563;54.756;9.400;2024-01-15T02:03:55;4.80;76.30
9057;DHT22;4563;54.756;9.400;2024-01-15T02:06:25;4.80;76.20
9057;DHT22;4563;54.756;9.400;2024-01-15T02:08:54;4.80;76.10
9057;DHT22;4563;54.756;9.400;2024-01-15T02:11:21;4.80;76.10
9057;DHT22;4563;54.756;9.400;2024-01-15T02:13:48;4.80;76.10
9057;DHT22;4563;54.756;9.400;2024-01-15T02:16:15;4.80;76.20
9057;DHT22;4563;54.756;9.400;2024-01-15T02:18:42;4.80;76.10
9057;DHT22;4563;54.756;9.400;2024-01-15T02:21:09;4.80;76.20
9057;DHT22;4563;54.756;9.400;2024-01-15T02:23:39;4.80;76.20
9057;DHT22;4563;54.756;9.400;2024-01-15T02:26:05;4.80;76.20
9057;DHT22;4563;54.756;9.400;2024-01-15T02:28:33;4.70;76.10
9057;DHT22;4563;54.756;9.400;2024-01-15T02:30:59;4.70;76.20
9057;DHT22;4563;54.756;9.400;2024-01-15T02:33:26;4.80;76.30
9057;DHT22;4563;54.756;9.400;2024-01-15T02:35:53;4.70;76.20
9057;DHT22;4563;54.756;9.400;2024-01-15T02:38:20;4.70;76.30
9057;DHT22;4563;54.756;9.400;2024-01-15T02:40:49;4.70;76.30
9057;DHT22;4563;54.756;9.400;2024-01-15T02:43:17;4.70;76.30
9057;DHT22;4563;54.756;9.400;2024-01-15T02:45:44;4.70;76.40
9057;DHT22;4563;54.756;9.400;2024-01-15T02:48:11;4.70;76.40
9057;DHT22;4563;54.756;9.400;2024-01-15T02:50:38;4.70;76.50
9057;DHT22;4563;54.756;9.400;2024-01-15T02:53:05;4.70;76.50
9057;DHT22;4563;54.756;9.400;2024-01-15T02:55:32;4.70;76.50
9057;DHT22;4563;54.756;9.400;2024-01-15T02:58:00;4.70;76.60
9057;DHT22;4563;54.756;9.400;2024-01-15T03:00:27;4.70;76.60
9057;DHT22;4563;54.756;9.400;2024-01-15T03:02:54;4.70;76.60
9057;DHT22;4563;54.756;9.400;2024-01-15T03:05:22;4.70;76.60
9057;DHT22;4563;54.756;9.400;2024-01-15T03:07:49;4.70;76.60
9057;DHT22;4563;54.756;9.400;2024-01-15T03:10:16;4.70;76.60
9057;DHT22;4563;54.756;9.400;2024-01-15T03:12:43;4.70;76.60
9057;DHT22;4563;54.756;9.400;2024-01-15T03:15:11;4.70;76.50
9057;DHT22;4563;54.756;9.400;2024-01-15T03:17:38;4.70;76.50
9057;DHT22;4563;54.756;9.400;2024-01-15T03:20:06;4.70;76.40
9057;DHT22;4563;54.756;9.400;2024-01-15T03:22:33;4.70;76.30
9057;DHT22;4563;54.756;9.400;2024-01-15T03:25:00;4.70;76.20
9057;DHT22;4563;54.756;9.400;2024-01-15T03:27:26;4.70;76.10
9057;DHT22;4563;54.756;9.400;2024-01-15T03:29:53;4.70;75.90
9057;DHT22;4563;54.756;9.400;2024-01-15T03:32:21;4.70;75.80
9057;DHT22;4563;54.756;9.400;2024-01-15T03:34:48;4.70;75.60
9057;DHT22;4563;54.756;9.400;2024-01-15T03:37:15;4.70;75.60
9057;DHT22;4563;54.756;9.400;2024-01-15T03:39:41;4.70;75.50
9057;DHT22;4563;54.756;9.400;2024-01-15T03:42:08;4.70;75.40
9057;DHT22;4563;54.756;9.400;2024-01-15T03:44:35;4.70;75.30
9057;DHT22;4563;54.756;9.400;2024-01-15T03:47:02;4.70;75.20
9057;DHT22;4563;54.756;9.400;2024-01-15T03:49:30;4.70;75.10
9057;DHT22;4563;54.756;9.400;2024-01-15T03:51:57;4.70;75.10
9057;DHT22;4563;54.756;9.400;2024-01-15T03:54:23;4.70;75.10
9057;DHT22;4563;54.756;9.400;2024-01-15T03:56:50;4.70;75.10
9057;DHT22;4563;54.756;9.400;2024-01-15T03:59:17;4.70;75.00
9057;DHT22;4563;54.756;9.400;2024-01-15T04:01:48;4.70;75.00
9057;DHT22;4563;54.756;9.400;2024-01-15T04:04:16;4.70;74.80
9057;DHT22;4563;54.756;9.400;2024-01-15T04:06:45;4.70;74.80
9057;DHT22;4563;54.756;9.400;2024-01-15T04:09:12;4.70;74.70
9057;DHT22;4563;54.756;9.400;2024-01-15T04:11:39;4.70;74.80
9057;DHT22;4563;54.756;9.400;2024-01-15T04:14:06;4.70;74.70
9057;DHT22;4563;54.756;9.400;2024-01-15T04:16:32;4.70;74.70
9057;DHT22;4563;54.756;9.400;2024-01-15T04:18:59;4.70;74.70
9057;DHT22;4563;54.756;9.400;2024-01-15T04:21:26;4.70;74.80
9057;DHT22;4563;54.756;9.400;2024-01-15T04:23:54;4.70;74.70
9057;DHT22;4563;54.756;9.400;2024-01-15T04:26:21;4.70;74.60
9057;DHT22;4563;54.756;9.400;2024-01-15T04:28:48;4.70;75.30
9057;DHT22;4563;54.756;9.400;2024-01-15T04:31:21;4.70;74.50
9057;DHT22;4563;54.756;9.400;2024-01-15T04:33:48;4.70;74.50
9057;DHT22;4563;54.756;9.400;2024-01-15T04:36:15;4.70;74.40
9057;DHT22;4563;54.756;9.400;2024-01-15T04:38:41;4.70;72.50
9057;DHT22;4563;54.756;9.400;2024-01-15T04:41:11;4.60;73.90
9057;DHT22;4563;54.756;9.400;2024-01-15T04:43:38;4.60;74.10
9057;DHT22;4563;54.756;9.400;2024-01-15T04:46:05;4.60;74.20
9057;DHT22;4563;54.756;9.400;2024-01-15T04:48:33;4.60;74.20
9057;DHT22;4563;54.756;9.400;2024-01-15T04:50:59;4.60;74.20
9057;DHT22;4563;54.756;9.400;2024-01-15T04:53:26;4.60;74.10
9057;DHT22;4563;54.756;9.400;2024-01-15T04:55:53;4.60;73.90
9057;DHT22;4563;54.756;9.400;2024-01-15T04:58:21;4.60;73.90
9057;DHT22;4563;54.756;9.400;2024-01-15T05:00:50;4.60;73.80
9057;DHT22;4563;54.756;9.400;2024-01-15T05:03:17;4.60;73.70
9057;DHT22;4563;54.756;9.400;2024-01-15T05:05:44;4.50;73.50
9057;DHT22;4563;54.756;9.400;2024-01-15T05:08:11;4.60;73.60
9057;DHT22;4563;54.756;9.400;2024-01-15T05:10:38;4.50;73.50
9057;DHT22;4563;54.756;9.400;2024-01-15T05:13:04;4.50;74.10
9057;DHT22;4563;54.756;9.400;2024-01-15T05:15:33;4.50;73.50
9057;DHT22;4563;54.756;9.400;2024-01-15T05:17:59;4.50;73.50
9057;DHT22;4563;54.756;9.400;2024-01-15T05:20:26;4.50;73.50
9057;DHT22;4563;54.756;9.400;2024-01-15T05:22:53;4.50;73.50
9057;DHT22;4563;54.756;9.400;2024-01-15T05:25:20;4.50;73.50
9057;DHT22;4563;54.756;9.400;2024-01-15T05:27:46;4.50;73.60
9057;DHT22;4563;54.756;9.400;2024-01-15T05:30:14;4.50;73.60
9057;DHT22;4563;54.756;9.400;2024-01-15T05:32:43;4.50;73.70
9057;DHT22;4563;54.756;9.400;2024-01-15T05:35:09;4.50;73.70
9057;DHT22;4563;54.756;9.400;2024-01-15T05:37:36;4.50;73.70
9057;DHT22;4563;54.756;9.400;2024-01-15T05:40:04;4.40;73.60
9057;DHT22;4563;54.756;9.400;2024-01-15T05:42:31;4.40;73.60
9057;DHT22;4563;54.756;9.400;2024-01-15T05:44:58;4.40;73.60
9057;DHT22;4563;54.756;9.400;2024-01-15T05:47:27;4.40;73.60
9057;DHT22;4563;54.756;9.400;2024-01-15T05:49:56;4.40;73.60
9057;DHT22;4563;54.756;9.400;2024-01-15T05:52:23;4.40;73.70
9057;DHT22;4563;54.756;9.400;2024-01-15T05:54:50;4.30;73.50
9057;DHT22;4563;54.756;9.400;2024-01-15T05:57:17;4.30;73.60
9057;DHT22;4563;54.756;9.400;2024-01-15T05:59:44;4.30;73.60
9057;DHT22;4563;54.756;9.400;2024-01-15T06:02:11;4.30;73.70
9057;DHT22;4563;54.756;9.400;2024-01-15T06:04:38;4.30;73.70
9057;DHT22;4563;54.756;9.400;2024-01-15T06:07:06;4.30;73.80
9057;DHT22;4563;54.756;9.400;2024-01-15T06:09:33;4.30;73.80
9057;DHT22;4563;54.756;9.400;2024-01-15T06:12:00;4.30;73.90
9057;DHT22;4563;54.756;9.400;2024-01-15T06:14:27;4.30;73.90
9057;DHT22;4563;54.756;9.400;2024-01-15T06:16:54;4.30;73.90
9057;DHT22;4563;54.756;9.400;2024-01-15T06:19:20;4.30;73.90
9057;DHT22;4563;54.756;9.400;2024-01-15T06:21:47;4.20;73.80
9057;DHT22;4563;54.756;9.400;2024-01-15T06:24:15;4.20;73.90
9057;DHT22;4563;54.756;9.400;2024-01-15T06:26:44;4.30;74.00
9057;DHT22;4563;54.756;9.400;2024-01-15T06:29:12;4.30;74.10
9057;DHT22;4563;54.756;9.400;2024-01-15T06:31:39;4.30;74.80
9057;DHT22;4563;54.756;9.400;2024-01-15T06:34:06;4.30;74.10
9057;DHT22;4563;54.756;9.400;2024-01-15T06:36:33;4.20;74.00
9057;DHT22;4563;54.756;9.400;2024-01-15T06:38:59;4.20;74.10
9057;DHT22;4563;54.756;9.400;2024-01-15T06:41:27;4.20;74.10
9057;DHT22;4563;54.756;9.400;2024-01-15T06:43:54;4.20;74.10
9057;DHT22;4563;54.756;9.400;2024-01-15T06:46:22;4.20;74.10
9057;DHT22;4563;54.756;9.400;2024-01-15T06:48:50;4.20;74.20
9057;DHT22;4563;54.756;9.400;2024-01-15T06:51:17;4.20;74.10
9057;DHT22;4563;54.756;9.400;2024-01-15T06:53:44;4.20;74.20
9057;DHT22;4563;54.756;9.400;2024-01-15T06:56:11;4.20;74.20
9057;DHT22;4563;54.756;9.400;2024-01-15T06:58:39;4.20;74.10
9057;DHT22;4563;54.756;9.400;2024-01-15T07:01:06;4.20;74.10
9057;DHT22;4563;54.756;9.400;2024-01-15T07:03:33;4.20;74.10
9057;DHT22;4563;54.756;9.400;2024-01-15T07:06:00;4.20;74.10
9057;DHT22;4563;54.756;9.400;2024-01-15T07:08:27;4.20;74.10
9057;DHT22;4563;54.756;9.400;2024-01-15T07:10:54;4.20;74.00
9057;DHT22;4563;54.756;9.400;2024-01-15T07:13:20;4.10;73.90
9057;DHT22;4563;54.756;9.400;2024-01-15T07:15:49;4.20;74.00
9057;DHT22;4563;54.756;9.400;2024-01-15T07:18:15;4.10;73.90
9057;DHT22;4563;54.756;9.400;2024-01-15T07:20:43;4.10;73.90
9057;DHT22;4563;54.756;9.400;2024-01-15T07:23:09;4.10;73.90
9057;DHT22;4563;54.756;9.400;2024-01-15T07:25:36;4.10;73.90
9057;DHT22;4563;54.756;9.400;2024-01-15T07:28:03;4.10;73.80
9057;DHT22;4563;54.756;9.400;2024-01-15T07:30:30;4.00;73.70
9057;DHT22;4563;54.756;9.400;2024-01-15T07:32:59;4.00;73.70
9057;DHT22;4563;54.756;9.400;2024-01-15T07:35:25;4.00;73.60
9057;DHT22;4563;54.756;9.400;2024-01-15T07:37:52;4.00;73.60
9057;DHT22;4563;54.756;9.400;2024-01-15T07:40:20;4.00;73.60
9057;DHT22;4563;54.756;9.400;2024-01-15T07:42:46;3.90;73.50
9057;DHT22;4563;54.756;9.400;2024-01-15T07:45:13;4.00;73.60
9057;DHT22;4563;54.756;9.400;2024-01-15T07:47:40;3.90;73.50
9057;DHT22;4563;54.756;9.400;2024-01-15T07:50:08;3.90;73.50
9057;DHT22;4563;54.756;9.400;2024-01-15T07:52:35;3.90;73.50
9057;DHT22;4563;54.756;9.400;2024-01-15T07:55:02;3.90;73.50
9057;DHT22;4563;54.756;9.400;2024-01-15T07:57:31;3.80;73.40
9057;DHT22;4563;54.756;9.400;2024-01-15T07:59:57;3.80;73.40
9057;DHT22;4563;54.756;9.400;2024-01-15T08:02:24;3.80;73.40
9057;DHT22;4563;54.756;9.400;2024-01-15T08:04:51;3.80;73.40
9057;DHT22;4563;54.756;9.400;2024-01-15T08:07:19;3.80;73.40
9057;DHT22;4563;54.756;9.400;2024-01-15T08:09:46;3.70;73.30
9057;DHT22;4563;54.756;9.400;2024-01-15T08:12:14;3.70;73.30
9057;DHT22;4563;54.756;9.400;2024-01-15T08:14:41;3.70;73.20
9057;DHT22;4563;54.756;9.400;2024-01-15T08:17:08;3.70;73.20
9057;DHT22;4563;54.756;9.400;2024-01-15T08:19:34;3.70;73.20
9057;DHT22;4563;54.756;9.400;2024-01-15T08:22:01;3.60;73.20
9057;DHT22;4563;54.756;9.400;2024-01-15T08:24:29;3.60;73.10
9057;DHT22;4563;54.756;9.400;2024-01-15T08:26:57;3.60;73.20
9057;DHT22;4563;54.756;9.400;2024-01-15T08:29:23;3.60;73.10
9057;DHT22;4563;54.756;9.400;2024-01-15T08:31:51;3.60;73.10
9057;DHT22;4563;54.756;9.400;2024-01-15T08:34:17;3.60;73.00
9057;DHT22;4563;54.756;9.400;2024-01-15T08:36:44;3.60;73.00
9057;DHT22;4563;54.756;9.400;2024-01-15T08:39:11;3.60;73.00
9057;DHT22;4563;54.756;9.400;2024-01-15T08:41:39;3.50;73.00
9057;DHT22;4563;54.756;9.400;2024-01-15T08:44:06;3.50;72.90
9057;DHT22;4563;54.756;9.400;2024-01-15T08:46:33;3.50;72.90
9057;DHT22;4563;54.756;9.400;2024-01-15T08:49:03;3.50;72.90
9057;DHT22;4563;54.756;9.400;2024-01-15T08:51:30;3.50;72.90
9057;DHT22;4563;54.756;9.400;2024-01-15T08:53:56;3.50;72.80
9057;DHT22;4563;54.756;9.400;2024-01-15T08:56:23;3.50;73.60
9057;DHT22;4563;54.756;9.400;2024-01-15T08:58:51;3.50;72.80
9057;DHT22;4563;54.756;9.400;2024-01-15T09:01:20;3.50;72.80
9057;DHT22;4563;54.756;9.400;2024-01-15T09:03:47;3.50;72.80
9057;DHT22;4563;54.756;9.400;2024-01-15T09:06:14;3.50;72.70
9057;DHT22;4563;54.756;9.400;2024-01-15T09:08:41;3.50;72.70
9057;DHT22;4563;54.756;9.400;2024-01-15T09:11:08;3.50;72.80
9057;DHT22;4563;54.756;9.400;2024-01-15T09:13:35;3.50;72.70
9057;DHT22;4563;54.756;9.400;2024-01-15T09:16:04;3.50;72.70
9057;DHT22;4563;54.756;9.400;2024-01-15T09:18:31;3.50;72.70
9057;DHT22;4563;54.756;9.400;2024-01-15T09:20:58;3.50;72.70
9057;DHT22;4563;54.756;9.400;2024-01-15T09:23:25;3.50;73.30
9057;DHT22;4563;54.756;9.400;2024-01-15T09:25:52;3.50;72.60
9057;DHT22;4563;54.756;9.400;2024-01-15T09:28:18;3.50;72.60
9057;DHT22;4563;54.756;9.400;2024-01-15T09:30:45;3.50;72.50
9057;DHT22;4563;54.756;9.400;2024-01-15T09:33:14;3.50;72.50
9057;DHT22;4563;54.756;9.400;2024-01-15T09:35:41;3.50;72.60
9057;DHT22;4563;54.756;9.400;2024-01-15T09:38:08;3.50;72.60
9057;DHT22;4563;54.756;9.400;2024-01-15T09:40:38;3.50;72.50
9057;DHT22;4563;54.756;9.400;2024-01-15T09:43:06;3.50;72.50
9057;DHT22;4563;54.756;9.400;2024-01-15T09:45:33;3.50;72.50
9057;DHT22;4563;54.756;9.400;2024-01-15T09:48:00;3.50;72.50
9057;DHT22;4563;54.756;9.400;2024-01-15T09:50:29;3.50;72.40
9057;DHT22;4563;54.756;9.400;2024-01-15T09:52:56;3.50;72.40
9057;DHT22;4563;54.756;9.400;2024-01-15T09:55:23;3.50;72.40
9057;DHT22;4563;54.756;9.400;2024-01-15T09:57:50;3.50;72.30
9057;DHT22;4563;54.756;9.400;2024-01-15T10:00:18;3.50;72.30
9057;DHT22;4563;54.756;9.400;2024-01-15T10:02:48;3.50;72.30
9057;DHT22;4563;54.756;9.400;2024-01-15T10:05:15;3.50;72.30
9057;DHT22;4563;54.756;9.400;2024-01-15T10:07:43;3.50;72.30
9057;DHT22;4563;54.756;9.400;2024-01-15T10:10:12;3.60;72.40
9057;DHT22;4563;54.756;9.400;2024-01-15T10:12:39;3.50;72.90
9057;DHT22;4563;54.756;9.400;2024-01-15T10:15:09;3.50;72.10
9057;DHT22;4563;54.756;9.400;2024-01-15T10:17:40;3.60;72.20
9057;DHT22;4563;54.756;9.400;2024-01-15T10:20:09;3.60;72.20
9057;DHT22;4563;54.756;9.400;2024-01-15T10:22:40;3.60;72.10
9057;DHT22;4563;54.756;9.400;2024-01-15T10:25:10;3.60;72.10
9057;DHT22;4563;54.756;9.400;2024-01-15T10:27:37;3.60;72.00
9057;DHT22;4563;54.756;9.400;2024-01-15T10:30:04;3.60;72.00
9057;DHT22;4563;54.756;9.400;2024-01-15T10:32:33;3.60;72.00
9057;DHT22;4563;54.756;9.400;2024-01-15T10:35:00;3.60;71.80
9057;DHT22;4563;54.756;9.400;2024-01-15T10:37:33;3.60;71.80
9057;DHT22;4563;54.756;9.400;2024-01-15T10:40:01;3.60;71.70
9057;DHT22;4563;54.756;9.400;2024-01-15T10:42:30;3.60;71.70
9057;DHT22;4563;54.756;9.400;2024-01-15T10:44:57;3.60;71.60
9057;DHT22;4563;54.756;9.400;2024-01-15T10:47:25;3.60;71.50
9057;DHT22;4563;54.756;9.400;2024-01-15T10:49:58;3.60;71.50
9057;DHT22;4563;54.756;9.400;2024-01-15T10:52:25;3.60;71.50
9057;DHT22;4563;54.756;9.400;2024-01-15T10:54:55;3.60;71.40
9057;DHT22;4563;54.756;9.400;2024-01-15T10:57:23;3.60;71.40
9057;DHT22;4563;54.756;9.400;2024-01-15T10:59:58;3.60;71.40
9057;DHT22;4563;54.756;9.400;2024-01-15T11:02:25;3.70;71.40
9057;DHT22;4563;54.756;9.400;2024-01-15T11:04:53;3.60;71.30
9057;DHT22;4563;54.756;9.400;2024-01-15T11:07:21;3.70;71.20
9057;DHT22;4563;54.756;9.400;2024-01-15T11:09:48;3.70;71.10
9057;DHT22;4563;54.756;9.400;2024-01-15T11:12:17;3.70;71.20
9057;DHT22;4563;54.756;9.400;2024-01-15T11:14:46;3.70;71.20
9057;DHT22;4563;54.756;9.400;2024-01-15T11:17:16;3.70;71.10
9057;DHT22;4563;54.756;9.400;2024-01-15T11:19:44;3.70;71.00
9057;DHT22;4563;54.756;9.400;2024-01-15T11:25:19;3.70;71.10
9057;DHT22;4563;54.756;9.400;2024-01-15T11:27:47;3.70;71.00
9057;DHT22;4563;54.756;9.400;2024-01-15T11:30:17;3.70;70.90
9057;DHT22;4563;54.756;9.400;2024-01-15T11:32:46;3.70;70.80
9057;DHT22;4563;54.756;9.400;2024-01-15T11:35:15;3.80;70.90
9057;DHT22;4563;54.756;9.400;2024-01-15T11:37:57;3.70;70.80
9057;DHT22;4563;54.756;9.400;2024-01-15T11:40:36;3.80;70.90
9057;DHT22;4563;54.756;9.400;2024-01-15T11:43:05;3.80;70.90
9057;DHT22;4563;54.756;9.400;2024-01-15T11:45:35;3.80;70.90
9057;DHT22;4563;54.756;9.400;2024-01-15T11:48:14;3.80;70.80
9057;DHT22;4563;54.756;9.400;2024-01-15T11:50:42;3.80;70.80
9057;DHT22;4563;54.756;9.400;2024-01-15T11:53:32;3.80;70.70
9057;DHT22;4563;54.756;9.400;2024-01-15T11:56:02;3.80;70.70
9057;DHT22;4563;54.756;9.400;2024-01-15T11:58:31;3.80;70.60
9057;DHT22;4563;54.756;9.400;2024-01-15T12:00:59;3.80;70.50
9057;DHT22;4563;54.756;9.400;2024-01-15T12:03:32;3.80;70.40
9057;DHT22;4563;54.756;9.400;2024-01-15T12:06:00;3.80;70.50
9057;DHT22;4563;54.756;9.400;2024-01-15T12:08:30;3.80;70.30
9057;DHT22;4563;54.756;9.400;2024-01-15T12:10:57;3.80;70.30
9057;DHT22;4563;54.756;9.400;2024-01-15T12:13:24;3.80;70.30
9057;DHT22;4563;54.756;9.400;2024-01-15T12:15:50;3.80;70.10
9057;DHT22;4563;54.756;9.400;2024-01-15T12:18:18;3.80;70.10
9057;DHT22;4563;54.756;9.400;2024-01-15T12:20:46;3.80;70.00
9057;DHT22;4563;54.756;9.400;2024-01-15T12:23:13;3.80;70.80
9057;DHT22;4563;54.756;9.400;2024-01-15T12:25:41;3.80;70.00
9057;DHT22;4563;54.756;9.400;2024-01-15T12:28:08;3.80;70.00
9057;DHT22;4563;54.756;9.400;2024-01-15T12:30:35;3.80;70.00
9057;DHT22;4563;54.756;9.400;2024-01-15T12:33:04;3.80;69.90
9057;DHT22;4563;54.756;9.400;2024-01-15T12:35:31;3.80;70.00
9057;DHT22;4563;54.756;9.400;2024-01-15T12:37:59;3.90;70.00
9057;DHT22;4563;54.756;9.400;2024-01-15T12:40:28;3.80;69.90
9057;DHT22;4563;54.756;9.400;2024-01-15T12:42:56;3.80;70.00
9057;DHT22;4563;54.756;9.400;2024-01-15T12:45:24;3.80;69.90
9057;DHT22;4563;54.756;9.400;2024-01-15T12:47:51;3.90;70.00
9057;DHT22;4563;54.756;9.400;2024-01-15T12:50:18;3.80;69.90
9057;DHT22;4563;54.756;9.400;2024-01-15T12:52:44;3.90;69.90
9057;DHT22;4563;54.756;9.400;2024-01-15T12:55:13;3.90;69.90
9057;DHT22;4563;54.756;9.400;2024-01-15T12:57:41;3.90;70.60
9057;DHT22;4563;54.756;9.400;2024-01-15T13:00:08;3.90;69.70
9057;DHT22;4563;54.756;9.400;2024-01-15T13:02:37;3.90;69.80
9057;DHT22;4563;54.756;9.400;2024-01-15T13:05:10;3.90;69.80
9057;DHT22;4563;54.756;9.400;2024-01-15T13:07:37;3.90;69.80
9057;DHT22;4563;54.756;9.400;2024-01-15T13:10:04;3.80;69.60
9057;DHT22;4563;54.756;9.400;2024-01-15T13:12:33;3.80;69.50
9057;DHT22;4563;54.756;9.400;2024-01-15T13:15:00;3.80;69.50
9057;DHT22;4563;54.756;9.400;2024-01-15T13:17:29;3.80;69.70
9057;DHT22;4563;54.756;9.400;2024-01-15T13:19:55;3.80;69.60
9057;DHT22;4563;54.756;9.400;2024-01-15T13:22:22;3.80;69.60
9057;DHT22;4563;54.756;9.400;2024-01-15T13:24:55;3.80;69.50
9057;DHT22;4563;54.756;9.400;2024-01-15T13:27:24;3.80;69.50
9057;DHT22;4563;54.756;9.400;2024-01-15T13:29:53;3.80;69.50
9057;DHT22;4563;54.756;9.400;2024-01-15T13:32:24;3.80;69.50
9057;DHT22;4563;54.756;9.400;2024-01-15T13:34:52;3.70;69.50
9057;DHT22;4563;54.756;9.400;2024-01-15T13:37:19;3.70;69.30
9057;DHT22;4563;54.756;9.400;2024-01-15T13:39:46;3.70;69.20
9057;DHT22;4563;54.756;9.400;2024-01-15T13:42:13;3.70;69.20
9057;DHT22;4563;54.756;9.400;2024-01-15T13:44:43;3.70;69.20
9057;DHT22;4563;54.756;9.400;2024-01-15T13:47:11;3.70;69.30
9057;DHT22;4563;54.756;9.400;2024-01-15T13:49:38;3.70;69.20
9057;DHT22;4563;54.756;9.400;2024-01-15T13:52:05;3.70;69.20
9057;DHT22;4563;54.756;9.400;2024-01-15T13:54:32;3.70;69.30
9057;DHT22;4563;54.756;9.400;2024-01-15T13:56:59;3.70;69.30
9057;DHT22;4563;54.756;9.400;2024-01-15T13:59:31;3.70;69.20
9057;DHT22;4563;54.756;9.400;2024-01-15T14:01:58;3.70;69.40
9057;DHT22;4563;54.756;9.400;2024-01-15T14:04:26;3.70;69.40
9057;DHT22;4563;54.756;9.400;2024-01-15T14:06:53;3.70;69.50
9057;DHT22;4563;54.756;9.400;2024-01-15T14:09:20;3.70;69.50
9057;DHT22;4563;54.756;9.400;2024-01-15T14:11:47;3.70;69.50
9057;DHT22;4563;54.756;9.400;2024-01-15T14:14:14;3.70;69.50
9057;DHT22;4563;54.756;9.400;2024-01-15T14:16:42;3.70;69.50
9057;DHT22;4563;54.756;9.400;2024-01-15T14:19:09;3.70;69.50
9057;DHT22;4563;54.756;9.400;2024-01-15T14:21:37;3.70;69.50
9057;DHT22;4563;54.756;9.400;2024-01-15T14:24:04;3.70;69.50
9057;DHT22;4563;54.756;9.400;2024-01-15T14:26:31;3.60;69.40
9057;DHT22;4563;54.756;9.400;2024-01-15T14:28:58;3.60;69.30
9057;DHT22;4563;54.756;9.400;2024-01-15T14:31:25;3.60;69.40
9057;DHT22;4563;54.756;9.400;2024-01-15T14:33:54;3.60;69.30
9057;DHT22;4563;54.756;9.400;2024-01-15T14:36:21;3.60;69.30
9057;DHT22;4563;54.756;9.400;2024-01-15T14:38:50;3.60;69.30
9057;DHT22;4563;54.756;9.400;2024-01-15T14:41:17;3.60;69.30
9057;DHT22;4563;54.756;9.400;2024-01-15T14:43:43;3.60;69.30
9057;DHT22;4563;54.756;9.400;2024-01-15T14:46:11;3.60;69.30
9057;DHT22;4563;54.756;9.400;2024-01-15T14:48:38;3.60;69.30
9057;DHT22;4563;54.756;9.400;2024-01-15T14:51:05;3.50;69.10
9057;DHT22;4563;54.756;9.400;2024-01-15T14:53:32;3.50;69.10
9057;DHT22;4563;54.756;9.400;2024-01-15T14:56:00;3.50;69.10
9057;DHT22;4563;54.756;9.400;2024-01-15T14:58:28;3.50;69.10
9057;DHT22;4563;54.756;9.400;2024-01-15T15:00:55;3.50;69.00
9057;DHT22;4563;54.756;9.400;2024-01-15T15:03:22;3.50;69.00
9057;DHT22;4563;54.756;9.400;2024-01-15T15:05:49;3.40;68.90
9057;DHT22;4563;54.756;9.400;2024-01-15T15:08:15;3.40;69.00
9057;DHT22;4563;54.756;9.400;2024-01-15T15:10:42;3.40;68.90
9057;DHT22;4563;54.756;9.400;2024-01-15T15:13:11;3.40;69.00
9057;DHT22;4563;54.756;9.400;2024-01-15T15:15:38;3.40;69.00
9057;DHT22;4563;54.756;9.400;2024-01-15T15:18:04;3.40;69.00
9057;DHT22;4563;54.756;9.400;2024-01-15T15:20:31;3.40;69.00
9057;DHT22;4563;54.756;9.400;2024-01-15T15:22:58;3.30;69.00
9057;DHT22;4563;54.756;9.400;2024-01-15T15:25:25;3.30;69.00
9057;DHT22;4563;54.756;9.400;2024-01-15T15:27:52;3.30;69.00
9057;DHT22;4563;54.756;9.400;2024-01-15T15:30:20;3.30;69.10
9057;DHT22;4563;54.756;9.400;2024-01-15T15:32:47;3.30;69.10
9057;DHT22;4563;54.756;9.400;2024-01-15T15:35:14;3.30;69.20
9057;DHT22;4563;54.756;9.400;2024-01-15T15:37:41;3.30;69.10
9057;DHT22;4563;54.756;9.400;2024-01-15T15:40:09;3.20;69.10
9057;DHT22;4563;54.756;9.400;2024-01-15T15:42:36;3.20;69.20
9057;DHT22;4563;54.756;9.400;2024-01-15T15:45:04;3.20;69.20
9057;DHT22;4563;54.756;9.400;2024-01-15T15:47:32;3.20;69.20
9057;DHT22;4563;54.756;9.400;2024-01-15T15:49:59;3.20;69.20
9057;DHT22;4563;54.756;9.400;2024-01-15T15:52:26;3.20;69.30
9057;DHT22;4563;54.756;9.400;2024-01-15T15:54:53;3.10;69.20
9057;DHT22;4563;54.756;9.400;2024-01-15T15:57:20;3.10;69.30
9057;DHT22;4563;54.756;9.400;2024-01-15T15:59:48;3.10;69.40
9057;DHT22;4563;54.756;9.400;2024-01-15T16:02:15;3.10;69.40
9057;DHT22;4563;54.756;9.400;2024-01-15T16:04:43;3.10;69.40
9057;DHT22;4563;54.756;9.400;2024-01-15T16:07:09;3.10;69.50
9057;DHT22;4563;54.756;9.400;2024-01-15T16:09:37;3.10;69.50
9057;DHT22;4563;54.756;9.400;2024-01-15T16:12:06;3.10;69.50
9057;DHT22;4563;54.756;9.400;2024-01-15T16:14:34;3.10;69.60
9057;DHT22;4563;54.756;9.400;2024-01-15T16:17:00;3.10;69.60
9057;DHT22;4563;54.756;9.400;2024-01-15T16:19:27;3.10;69.70
9057;DHT22;4563;54.756;9.400;2024-01-15T16:21:55;3.10;69.70